Henk — PI7858 — position and weather

sailwx.info

Track history (hours):
 
Tides and Currents Weather Stations Pressure Air Temp Water Temp Dewpoint Dewpoint Depression Visibility Wind Speed Wind Dir Waves Ship Positions

Henk

Last reported at 2017-Aug-27 17:45 UTC. Time now 2017-Sep-22 02:47 UTC.
Position N 47°30' W 002°22'.
Warning: this ship's position is 25 days out of date.

Length 13 m.

MMSI: 244153118.

Date/timePositionNaut miles runAvg speedWind from/ knotsBaromVisibWave heightAir tempDewpointWater temp
2017-Aug-27 17:45N 47°30' W 002°22'0 0.6
2017-Aug-27 17:30N 47°30' W 002°23'1 0.8
2017-Aug-27 16:08N 47°30' W 002°24'1 6.1
2017-Aug-27 15:57N 47°30' W 002°26'3 5.9
2017-Aug-27 15:30N 47°30' W 002°30'2 4.7
2017-Aug-27 15:00N 47°29' W 002°32'2 5.0
2017-Aug-27 14:30N 47°27' W 002°34'3 5.3
2017-Aug-27 14:00N 47°25' W 002°38'0 0.9
2017-Aug-27 13:30N 47°25' W 002°37'0 0.0
2017-Aug-27 13:00N 47°25' W 002°37'0 0.0
2017-Aug-27 12:30N 47°25' W 002°37'0 0.0
2017-Aug-27 12:00N 47°25' W 002°37'0 0.0
2017-Aug-27 11:27N 47°25' W 002°37'0 0.0
2017-Aug-27 11:00N 47°25' W 002°37'0 0.0
2017-Aug-27 10:27N 47°25' W 002°37'0 0.0
2017-Aug-27 10:00N 47°25' W 002°37'0 0.0
2017-Aug-27 09:30N 47°25' W 002°37'0 0.0
2017-Aug-27 09:00N 47°25' W 002°37'0 0.4
2017-Aug-27 08:29N 47°25' W 002°38'1 2.5
2017-Aug-27 08:00N 47°24' W 002°36'2 3.6
2017-Aug-27 07:30N 47°24' W 002°34'1 2.1
2017-Aug-27 07:00N 47°23' W 002°33'0 0.0
2017-Aug-27 06:27N 47°23' W 002°33'0 0.0
2017-Aug-27 06:00N 47°23' W 002°33'0 0.0
2017-Aug-27 05:30N 47°23' W 002°33'0 0.0
2017-Aug-27 05:00N 47°23' W 002°33'0 0.0
2017-Aug-27 04:30N 47°23' W 002°33'0 0.0
2017-Aug-27 04:00N 47°23' W 002°33'0 0.0
2017-Aug-27 03:30N 47°23' W 002°33'0 0.0
2017-Aug-27 03:00N 47°23' W 002°33'0 0.0
2017-Aug-27 02:24N 47°23' W 002°33'0 0.0
2017-Aug-27 02:00N 47°23' W 002°33'0 0.0
2017-Aug-27 01:30N 47°23' W 002°33'0 0.0
2017-Aug-27 01:00N 47°23' W 002°33'0 0.0
2017-Aug-27 00:30N 47°23' W 002°33'0 0.0
2017-Aug-27 00:00N 47°23' W 002°33'0 0.0
2017-Aug-26 23:27N 47°23' W 002°33'0 0.0
2017-Aug-26 23:00N 47°23' W 002°33'0 0.0
2017-Aug-26 22:30N 47°23' W 002°33'0 0.0
2017-Aug-26 22:00N 47°23' W 002°33'0 0.0
2017-Aug-26 21:30N 47°23' W 002°33'0 0.0
2017-Aug-26 21:00N 47°23' W 002°33'0 0.0
2017-Aug-26 20:30N 47°23' W 002°33'0 0.0
2017-Aug-26 19:57N 47°23' W 002°33'0 0.0
2017-Aug-26 19:21N 47°23' W 002°33'0 0.0
2017-Aug-26 18:57N 47°23' W 002°33'0 0.0
2017-Aug-26 18:30N 47°23' W 002°33'0 0.0
2017-Aug-26 18:00N 47°23' W 002°33'0 0.0
2017-Aug-26 17:30N 47°23' W 002°33'0 0.0
2017-Aug-26 17:00N 47°23' W 002°33'0 0.0
2017-Aug-26 16:30N 47°23' W 002°33'0 0.0
2017-Aug-26 16:00N 47°23' W 002°33'0 0.0
2017-Aug-26 15:30N 47°23' W 002°33'0 0.0
2017-Aug-26 15:00N 47°23' W 002°33'0 0.0
2017-Aug-26 14:00N 47°23' W 002°33'0 0.0
2017-Aug-26 13:30N 47°23' W 002°33'0 0.0
2017-Aug-26 13:00N 47°23' W 002°33'0 0.0
2017-Aug-26 12:30N 47°23' W 002°33'0 0.0
2017-Aug-26 12:00N 47°23' W 002°33'0 0.0
2017-Aug-26 11:30N 47°23' W 002°33'0 0.0
2017-Aug-26 11:00N 47°23' W 002°33'0 0.0
2017-Aug-26 10:30N 47°23' W 002°33'0 0.0
2017-Aug-26 10:00N 47°23' W 002°33'0 0.0
2017-Aug-26 09:30N 47°23' W 002°33'0 0.0
2017-Aug-26 09:00N 47°23' W 002°33'0 0.0
2017-Aug-26 08:29N 47°23' W 002°33'0 0.0
2017-Aug-26 07:56N 47°23' W 002°33'0 0.0
2017-Aug-26 04:56N 47°23' W 002°33'0 0.0
2017-Aug-26 04:05N 47°23' W 002°33'0 0.0
2017-Aug-26 03:59N 47°23' W 002°33'0 0.0
2017-Aug-26 03:29N 47°23' W 002°33'0 0.0
2017-Aug-26 02:11N 47°23' W 002°33'0 0.0
2017-Aug-26 01:59N 47°23' W 002°33'0 0.0
2017-Aug-26 01:29N 47°23' W 002°33'0 0.0
2017-Aug-26 00:59N 47°23' W 002°33'0 0.0
2017-Aug-26 00:23N 47°23' W 002°33'0 0.0
2017-Aug-25 23:59N 47°23' W 002°33'0 0.0
2017-Aug-25 23:26N 47°23' W 002°33'0 0.0
2017-Aug-25 22:56N 47°23' W 002°33'0 0.0
2017-Aug-25 22:29N 47°23' W 002°33'0 0.0
2017-Aug-25 21:56N 47°23' W 002°33'0 0.0
2017-Aug-25 21:29N 47°23' W 002°33'0 0.0
2017-Aug-25 20:56N 47°23' W 002°33'0 0.0
2017-Aug-25 20:20N 47°23' W 002°33'0 0.0
2017-Aug-25 19:56N 47°23' W 002°33'0 0.0
2017-Aug-25 19:29N 47°23' W 002°33'0 0.0
2017-Aug-25 18:59N 47°23' W 002°33'0 0.0
2017-Aug-25 18:29N 47°23' W 002°33'0 0.0
2017-Aug-25 17:59N 47°23' W 002°33'0 0.0
2017-Aug-25 17:29N 47°23' W 002°33'0 0.0
2017-Aug-25 16:59N 47°23' W 002°33'0 0.0
2017-Aug-25 16:29N 47°23' W 002°33'0 0.0
2017-Aug-25 15:59N 47°23' W 002°33'0 0.0
2017-Aug-25 15:29N 47°23' W 002°33'0 0.0
2017-Aug-25 14:59N 47°23' W 002°33'0 0.0
2017-Aug-25 14:29N 47°23' W 002°33'0 0.0
2017-Aug-25 13:29N 47°23' W 002°33'0 0.0
2017-Aug-25 12:59N 47°23' W 002°33'0 0.0
2017-Aug-25 12:29N 47°23' W 002°33'0 0.0
2017-Aug-25 11:59N 47°23' W 002°33'0 0.0
2017-Aug-25 11:29N 47°23' W 002°33'0 0.0
2017-Aug-25 10:52N 47°23' W 002°33'0 0.0
2017-Aug-25 10:28N 47°23' W 002°33'0 0.0
2017-Aug-25 09:58N 47°23' W 002°33'0 0.0
2017-Aug-25 09:29N 47°23' W 002°33'0 0.0
2017-Aug-25 08:53N 47°23' W 002°33'0 0.0
2017-Aug-25 08:26N 47°23' W 002°33'0 0.0
2017-Aug-25 07:53N 47°23' W 002°33'0 0.0
2017-Aug-25 07:08N 47°23' W 002°33'0 0.0
2017-Aug-25 06:56N 47°23' W 002°33'0 0.0
2017-Aug-25 06:26N 47°23' W 002°33'0 0.0
2017-Aug-25 05:53N 47°23' W 002°33'0 0.0
2017-Aug-25 03:47N 47°23' W 002°33'0 0.0
2017-Aug-25 03:29N 47°23' W 002°33'0 0.0
2017-Aug-25 02:26N 47°23' W 002°33'0 0.0
2017-Aug-25 01:23N 47°23' W 002°33'0 0.0
2017-Aug-25 00:50N 47°23' W 002°33'0 0.0
2017-Aug-25 00:29N 47°23' W 002°33'0 0.0
2017-Aug-24 23:35N 47°23' W 002°33'0 0.0
2017-Aug-24 23:23N 47°23' W 002°33'0 0.0
2017-Aug-24 22:05N 47°23' W 002°33'0 0.0
2017-Aug-24 21:59N 47°23' W 002°33'0 0.0
2017-Aug-24 21:20N 47°23' W 002°33'0 0.0
2017-Aug-24 20:53N 47°23' W 002°33'0 0.0
2017-Aug-24 20:26N 47°23' W 002°33'0 0.0
2017-Aug-24 19:59N 47°23' W 002°33'0 0.0
2017-Aug-24 19:29N 47°23' W 002°33'0 0.0
2017-Aug-24 18:59N 47°23' W 002°33'0 0.0
2017-Aug-24 18:26N 47°23' W 002°33'0 0.0
2017-Aug-24 17:56N 47°23' W 002°33'0 0.0
2017-Aug-24 17:26N 47°23' W 002°33'0 0.0
2017-Aug-24 16:41N 47°23' W 002°33'0 0.0
2017-Aug-24 16:26N 47°23' W 002°33'0 0.0
2017-Aug-24 15:59N 47°23' W 002°33'0 0.0
2017-Aug-24 15:26N 47°23' W 002°33'1 1.5
2017-Aug-24 15:00N 47°24' W 002°33'2 4.9
2017-Aug-24 14:30N 47°22' W 002°35'39 1.1
2017-Aug-23 01:38N 46°44' W 002°21'0 0.0
2017-Aug-23 01:29N 46°44' W 002°21'0 0.0
2017-Aug-21 09:56N 46°44' W 002°21'0 0.0
2017-Aug-21 07:08N 46°44' W 002°21'0 0.0
2017-Aug-21 06:59N 46°44' W 002°21'38 0.9
2017-Aug-19 13:53N 47°21' W 002°35'2 6.2
2017-Aug-19 13:29N 47°23' W 002°35'3 6.2
2017-Aug-19 13:00N 47°26' W 002°33'3 5.8
2017-Aug-19 12:30N 47°29' W 002°32'2 4.2
2017-Aug-19 12:00N 47°30' W 002°30'2 3.5
2017-Aug-19 11:29N 47°30' W 002°28'3 2.4
2017-Aug-19 10:08N 47°30' W 002°23'0 0.0
2017-Aug-19 09:51N 47°30' W 002°23'0 0.3
2017-Aug-19 09:15N 47°30' W 002°23'0 0.0
2017-Aug-19 08:57N 47°30' W 002°23'0 0.0
2017-Aug-19 07:48N 47°30' W 002°23'0 0.0
2017-Aug-19 07:27N 47°30' W 002°23'0 0.0
2017-Aug-19 07:00N 47°30' W 002°23'0 0.0
2017-Aug-19 06:27N 47°30' W 002°23'0 0.0
2017-Aug-19 04:39N 47°30' W 002°23'0 0.0
2017-Aug-19 02:33N 47°30' W 002°23'0 0.0
2017-Aug-18 21:30N 47°30' W 002°23'0 0.0
2017-Aug-18 20:45N 47°30' W 002°23'0 0.0
2017-Aug-18 20:30N 47°30' W 002°23'0 0.0
2017-Aug-18 19:06N 47°30' W 002°23'0 0.0
2017-Aug-18 16:03N 47°30' W 002°23'0 0.0
2017-Aug-18 10:44N 47°30' W 002°23'0 0.0
2017-Aug-18 10:20N 47°30' W 002°23'  
Track history (hours):
 
Tides and Currents Weather Stations Pressure Air Temp Water Temp Dewpoint Dewpoint Depression Visibility Wind Speed Wind Dir Waves Ship Positions

Henk

Last reported at 2017-Aug-27 17:45 UTC. Time now 2017-Sep-22 02:47 UTC.
Position N 47°30' W 002°22'.
Warning: this ship's position is 25 days out of date.

Length 13 m.

MMSI: 244153118.

Date/timePositionNaut miles runAvg speedWind from/ knotsBaromVisibWave heightAir tempDewpointWater temp
2017-Aug-27 17:45N 47°30' W 002°22'0 0.6
2017-Aug-27 17:30N 47°30' W 002°23'1 0.8
2017-Aug-27 16:08N 47°30' W 002°24'1 6.1
2017-Aug-27 15:57N 47°30' W 002°26'3 5.9
2017-Aug-27 15:30N 47°30' W 002°30'2 4.7
2017-Aug-27 15:00N 47°29' W 002°32'2 5.0
2017-Aug-27 14:30N 47°27' W 002°34'3 5.3
2017-Aug-27 14:00N 47°25' W 002°38'0 0.9
2017-Aug-27 13:30N 47°25' W 002°37'0 0.0
2017-Aug-27 13:00N 47°25' W 002°37'0 0.0
2017-Aug-27 12:30N 47°25' W 002°37'0 0.0
2017-Aug-27 12:00N 47°25' W 002°37'0 0.0
2017-Aug-27 11:27N 47°25' W 002°37'0 0.0
2017-Aug-27 11:00N 47°25' W 002°37'0 0.0
2017-Aug-27 10:27N 47°25' W 002°37'0 0.0
2017-Aug-27 10:00N 47°25' W 002°37'0 0.0
2017-Aug-27 09:30N 47°25' W 002°37'0 0.0
2017-Aug-27 09:00N 47°25' W 002°37'0 0.4
2017-Aug-27 08:29N 47°25' W 002°38'1 2.5
2017-Aug-27 08:00N 47°24' W 002°36'2 3.6
2017-Aug-27 07:30N 47°24' W 002°34'1 2.1
2017-Aug-27 07:00N 47°23' W 002°33'0 0.0
2017-Aug-27 06:27N 47°23' W 002°33'0 0.0
2017-Aug-27 06:00N 47°23' W 002°33'0 0.0
2017-Aug-27 05:30N 47°23' W 002°33'0 0.0
2017-Aug-27 05:00N 47°23' W 002°33'0 0.0
2017-Aug-27 04:30N 47°23' W 002°33'0 0.0
2017-Aug-27 04:00N 47°23' W 002°33'0 0.0
2017-Aug-27 03:30N 47°23' W 002°33'0 0.0
2017-Aug-27 03:00N 47°23' W 002°33'0 0.0
2017-Aug-27 02:24N 47°23' W 002°33'0 0.0
2017-Aug-27 02:00N 47°23' W 002°33'0 0.0
2017-Aug-27 01:30N 47°23' W 002°33'0 0.0
2017-Aug-27 01:00N 47°23' W 002°33'0 0.0
2017-Aug-27 00:30N 47°23' W 002°33'0 0.0
2017-Aug-27 00:00N 47°23' W 002°33'0 0.0
2017-Aug-26 23:27N 47°23' W 002°33'0 0.0
2017-Aug-26 23:00N 47°23' W 002°33'0 0.0
2017-Aug-26 22:30N 47°23' W 002°33'0 0.0
2017-Aug-26 22:00N 47°23' W 002°33'0 0.0
2017-Aug-26 21:30N 47°23' W 002°33'0 0.0
2017-Aug-26 21:00N 47°23' W 002°33'0 0.0
2017-Aug-26 20:30N 47°23' W 002°33'0 0.0
2017-Aug-26 19:57N 47°23' W 002°33'0 0.0
2017-Aug-26 19:21N 47°23' W 002°33'0 0.0
2017-Aug-26 18:57N 47°23' W 002°33'0 0.0
2017-Aug-26 18:30N 47°23' W 002°33'0 0.0
2017-Aug-26 18:00N 47°23' W 002°33'0 0.0
2017-Aug-26 17:30N 47°23' W 002°33'0 0.0
2017-Aug-26 17:00N 47°23' W 002°33'0 0.0
2017-Aug-26 16:30N 47°23' W 002°33'0 0.0
2017-Aug-26 16:00N 47°23' W 002°33'0 0.0
2017-Aug-26 15:30N 47°23' W 002°33'0 0.0
2017-Aug-26 15:00N 47°23' W 002°33'0 0.0
2017-Aug-26 14:00N 47°23' W 002°33'0 0.0
2017-Aug-26 13:30N 47°23' W 002°33'0 0.0
2017-Aug-26 13:00N 47°23' W 002°33'0 0.0
2017-Aug-26 12:30N 47°23' W 002°33'0 0.0
2017-Aug-26 12:00N 47°23' W 002°33'0 0.0
2017-Aug-26 11:30N 47°23' W 002°33'0 0.0
2017-Aug-26 11:00N 47°23' W 002°33'0 0.0
2017-Aug-26 10:30N 47°23' W 002°33'0 0.0
2017-Aug-26 10:00N 47°23' W 002°33'0 0.0
2017-Aug-26 09:30N 47°23' W 002°33'0 0.0
2017-Aug-26 09:00N 47°23' W 002°33'0 0.0
2017-Aug-26 08:29N 47°23' W 002°33'0 0.0
2017-Aug-26 07:56N 47°23' W 002°33'0 0.0
2017-Aug-26 04:56N 47°23' W 002°33'0 0.0
2017-Aug-26 04:05N 47°23' W 002°33'0 0.0
2017-Aug-26 03:59N 47°23' W 002°33'0 0.0
2017-Aug-26 03:29N 47°23' W 002°33'0 0.0
2017-Aug-26 02:11N 47°23' W 002°33'0 0.0
2017-Aug-26 01:59N 47°23' W 002°33'0 0.0
2017-Aug-26 01:29N 47°23' W 002°33'0 0.0
2017-Aug-26 00:59N 47°23' W 002°33'0 0.0
2017-Aug-26 00:23N 47°23' W 002°33'0 0.0
2017-Aug-25 23:59N 47°23' W 002°33'0 0.0
2017-Aug-25 23:26N 47°23' W 002°33'0 0.0
2017-Aug-25 22:56N 47°23' W 002°33'0 0.0
2017-Aug-25 22:29N 47°23' W 002°33'0 0.0
2017-Aug-25 21:56N 47°23' W 002°33'0 0.0
2017-Aug-25 21:29N 47°23' W 002°33'0 0.0
2017-Aug-25 20:56N 47°23' W 002°33'0 0.0
2017-Aug-25 20:20N 47°23' W 002°33'0 0.0
2017-Aug-25 19:56N 47°23' W 002°33'0 0.0
2017-Aug-25 19:29N 47°23' W 002°33'0 0.0
2017-Aug-25 18:59N 47°23' W 002°33'0 0.0
2017-Aug-25 18:29N 47°23' W 002°33'0 0.0
2017-Aug-25 17:59N 47°23' W 002°33'0 0.0
2017-Aug-25 17:29N 47°23' W 002°33'0 0.0
2017-Aug-25 16:59N 47°23' W 002°33'0 0.0
2017-Aug-25 16:29N 47°23' W 002°33'0 0.0
2017-Aug-25 15:59N 47°23' W 002°33'0 0.0
2017-Aug-25 15:29N 47°23' W 002°33'0 0.0
2017-Aug-25 14:59N 47°23' W 002°33'0 0.0
2017-Aug-25 14:29N 47°23' W 002°33'0 0.0
2017-Aug-25 13:29N 47°23' W 002°33'0 0.0
2017-Aug-25 12:59N 47°23' W 002°33'0 0.0
2017-Aug-25 12:29N 47°23' W 002°33'0 0.0
2017-Aug-25 11:59N 47°23' W 002°33'0 0.0
2017-Aug-25 11:29N 47°23' W 002°33'0 0.0
2017-Aug-25 10:52N 47°23' W 002°33'0 0.0
2017-Aug-25 10:28N 47°23' W 002°33'0 0.0
2017-Aug-25 09:58N 47°23' W 002°33'0 0.0
2017-Aug-25 09:29N 47°23' W 002°33'0 0.0
2017-Aug-25 08:53N 47°23' W 002°33'0 0.0
2017-Aug-25 08:26N 47°23' W 002°33'0 0.0
2017-Aug-25 07:53N 47°23' W 002°33'0 0.0
2017-Aug-25 07:08N 47°23' W 002°33'0 0.0
2017-Aug-25 06:56N 47°23' W 002°33'0 0.0
2017-Aug-25 06:26N 47°23' W 002°33'0 0.0
2017-Aug-25 05:53N 47°23' W 002°33'0 0.0
2017-Aug-25 03:47N 47°23' W 002°33'0 0.0
2017-Aug-25 03:29N 47°23' W 002°33'0 0.0
2017-Aug-25 02:26N 47°23' W 002°33'0 0.0
2017-Aug-25 01:23N 47°23' W 002°33'0 0.0
2017-Aug-25 00:50N 47°23' W 002°33'0 0.0
2017-Aug-25 00:29N 47°23' W 002°33'0 0.0
2017-Aug-24 23:35N 47°23' W 002°33'0 0.0
2017-Aug-24 23:23N 47°23' W 002°33'0 0.0
2017-Aug-24 22:05N 47°23' W 002°33'0 0.0
2017-Aug-24 21:59N 47°23' W 002°33'0 0.0
2017-Aug-24 21:20N 47°23' W 002°33'0 0.0
2017-Aug-24 20:53N 47°23' W 002°33'0 0.0
2017-Aug-24 20:26N 47°23' W 002°33'0 0.0
2017-Aug-24 19:59N 47°23' W 002°33'0 0.0
2017-Aug-24 19:29N 47°23' W 002°33'0 0.0
2017-Aug-24 18:59N 47°23' W 002°33'0 0.0
2017-Aug-24 18:26N 47°23' W 002°33'0 0.0
2017-Aug-24 17:56N 47°23' W 002°33'0 0.0
2017-Aug-24 17:26N 47°23' W 002°33'0 0.0
2017-Aug-24 16:41N 47°23' W 002°33'0 0.0
2017-Aug-24 16:26N 47°23' W 002°33'0 0.0
2017-Aug-24 15:59N 47°23' W 002°33'0 0.0
2017-Aug-24 15:26N 47°23' W 002°33'1 1.5
2017-Aug-24 15:00N 47°24' W 002°33'2 4.9
2017-Aug-24 14:30N 47°22' W 002°35'39 1.1
2017-Aug-23 01:38N 46°44' W 002°21'0 0.0
2017-Aug-23 01:29N 46°44' W 002°21'0 0.0
2017-Aug-21 09:56N 46°44' W 002°21'0 0.0
2017-Aug-21 07:08N 46°44' W 002°21'0 0.0
2017-Aug-21 06:59N 46°44' W 002°21'38 0.9
2017-Aug-19 13:53N 47°21' W 002°35'2 6.2
2017-Aug-19 13:29N 47°23' W 002°35'3 6.2
2017-Aug-19 13:00N 47°26' W 002°33'3 5.8
2017-Aug-19 12:30N 47°29' W 002°32'2 4.2
2017-Aug-19 12:00N 47°30' W 002°30'2 3.5
2017-Aug-19 11:29N 47°30' W 002°28'3 2.4
2017-Aug-19 10:08N 47°30' W 002°23'0 0.0
2017-Aug-19 09:51N 47°30' W 002°23'0 0.3
2017-Aug-19 09:15N 47°30' W 002°23'0 0.0
2017-Aug-19 08:57N 47°30' W 002°23'0 0.0
2017-Aug-19 07:48N 47°30' W 002°23'0 0.0
2017-Aug-19 07:27N 47°30' W 002°23'0 0.0
2017-Aug-19 07:00N 47°30' W 002°23'0 0.0
2017-Aug-19 06:27N 47°30' W 002°23'0 0.0
2017-Aug-19 04:39N 47°30' W 002°23'0 0.0
2017-Aug-19 02:33N 47°30' W 002°23'0 0.0
2017-Aug-18 21:30N 47°30' W 002°23'0 0.0
2017-Aug-18 20:45N 47°30' W 002°23'0 0.0
2017-Aug-18 20:30N 47°30' W 002°23'0 0.0
2017-Aug-18 19:06N 47°30' W 002°23'0 0.0
2017-Aug-18 16:03N 47°30' W 002°23'0 0.0
2017-Aug-18 10:44N 47°30' W 002°23'0 0.0
2017-Aug-18 10:20N 47°30' W 002°23'  

Dump ship's entire track history